Time,TemperatureF,DewpointF,PressureIn,WindDirection,WindDirectionDegrees,WindSpeedMPH,WindSpeedGustMPH,Humidity,HourlyPrecipIn,Conditions,Clouds,dailyrainin,SoftwareType,DateUTC
2013-04-05 00:00:00,39.9,15.1,29.94,South,170,0.0,0.0,36,0.00,,---,0.00,VWS V14.01,2013-04-05 04:00:00,
2013-04-05 00:01:00,39.9,15.1,29.94,South,170,0.0,0.0,36,0.00,,---,0.00,VWS V14.01,2013-04-05 04:01:00,
2013-04-05 00:03:00,39.7,14.9,29.94,SW,215,0.0,0.0,36,0.00,,---,0.00,VWS V14.01,2013-04-05 04:03:00,
2013-04-05 00:05:00,39.5,15.4,29.94,SW,215,1.3,1.3,37,0.00,,---,0.00,VWS V14.01,2013-04-05 04:05:00,
2013-04-05 00:10:00,39.1,15.1,29.94,SW,215,3.0,3.0,37,0.00,,---,0.00,VWS V14.01,2013-04-05 04:10:00,
2013-04-05 00:15:00,38.8,15.4,29.94,SW,215,3.0,3.0,38,0.00,,---,0.00,VWS V14.01,2013-04-05 04:15:00,
2013-04-05 00:20:00,38.4,15.6,29.94,SW,215,0.0,0.0,39,0.00,,---,0.00,VWS V14.01,2013-04-05 04:20:00,
2013-04-05 00:26:00,38.2,15.5,29.94,SW,215,0.0,0.0,39,0.00,,---,0.00,VWS V14.01,2013-04-05 04:26:00,
2013-04-05 00:32:00,38.1,15.3,29.94,South,170,2.3,2.3,39,0.00,,---,0.00,VWS V14.01,2013-04-05 04:32:00,
2013-04-05 00:37:00,37.9,15.1,29.94,South,170,2.3,2.3,39,0.00,,---,0.00,VWS V14.01,2013-04-05 04:37:00,
2013-04-05 00:42:00,37.7,15.0,29.94,South,170,2.3,2.3,39,0.00,,---,0.00,VWS V14.01,2013-04-05 04:42:00,
2013-04-05 00:47:00,37.5,14.8,29.91,South,170,2.3,2.3,39,0.00,,---,0.00,VWS V14.01,2013-04-05 04:47:00,
2013-04-05 00:52:00,37.9,15.1,29.91,South,170,2.3,2.3,39,0.00,,---,0.00,VWS V14.01,2013-04-05 04:52:00,
2013-04-05 00:58:00,37.7,15.0,29.91,South,170,2.3,2.3,39,0.00,,---,0.00,VWS V14.01,2013-04-05 04:58:00,
2013-04-05 01:03:00,37.7,15.0,29.94,South,170,2.3,2.3,39,0.00,,---,0.00,VWS V14.01,2013-04-05 05:03:00,
2013-04-05 01:08:00,37.5,14.8,29.94,WNW,282,0.0,0.0,39,0.00,,---,0.00,VWS V14.01,2013-04-05 05:08:00,
2013-04-05 01:13:00,37.3,14.7,29.94,WNW,282,0.0,0.0,39,0.00,,---,0.00,VWS V14.01,2013-04-05 05:13:00,
2013-04-05 01:18:00,37.2,15.1,29.94,WNW,282,0.0,0.0,40,0.00,,---,0.00,VWS V14.01,2013-04-05 05:18:00,
2013-04-05 01:24:00,37.0,14.3,29.94,WNW,282,0.0,0.0,39,0.00,,---,0.00,VWS V14.01,2013-04-05 05:24:00,
2013-04-05 01:29:00,37.2,15.1,29.94,WNW,282,5.0,5.0,40,0.00,,---,0.00,VWS V14.01,2013-04-05 05:29:00,
2013-04-05 01:34:00,37.7,15.6,29.94,WNW,282,5.0,5.0,40,0.00,,---,0.00,VWS V14.01,2013-04-05 05:34:00,
2013-04-05 01:39:00,38.1,15.9,29.94,WNW,282,5.0,5.0,40,0.00,,---,0.00,VWS V14.01,2013-04-05 05:39:00,
2013-04-05 01:45:00,38.4,16.2,29.94,WNW,282,5.0,5.0,40,0.00,,---,0.00,VWS V14.01,2013-04-05 05:45:00,
2013-04-05 01:50:00,38.6,15.8,29.94,NW,305,2.3,2.3,39,0.00,,---,0.00,VWS V14.01,2013-04-05 05:50:00,
2013-04-05 01:55:00,38.8,16.5,29.94,NW,305,5.0,5.0,40,0.00,,---,0.00,VWS V14.01,2013-04-05 05:55:00,
2013-04-05 02:00:00,38.8,16.5,29.94,NW,305,5.0,5.0,40,0.00,,---,0.00,VWS V14.01,2013-04-05 06:00:00,
2013-04-05 02:06:00,39.1,16.9,29.94,NW,305,5.0,5.0,40,0.00,,---,0.00,VWS V14.01,2013-04-05 06:06:00,
2013-04-05 02:11:00,39.3,17.0,29.94,NW,305,5.0,5.0,40,0.00,,---,0.00,VWS V14.01,2013-04-05 06:11:00,
2013-04-05 02:17:00,39.5,17.2,29.94,NW,305,5.0,5.0,40,0.00,,---,0.00,VWS V14.01,2013-04-05 06:17:00,
2013-04-05 02:22:00,39.7,17.4,29.94,NW,305,5.0,5.0,40,0.00,,---,0.00,VWS V14.01,2013-04-05 06:22:00,
2013-04-05 02:27:00,39.5,17.2,29.94,NNW,328,0.0,0.0,40,0.00,,---,0.00,VWS V14.01,2013-04-05 06:27:00,
2013-04-05 02:33:00,39.5,17.2,29.94,NNW,328,0.0,0.0,40,0.00,,---,0.00,VWS V14.01,2013-04-05 06:33:00,
2013-04-05 02:38:00,39.5,17.2,29.94,NNW,328,0.0,0.0,40,0.00,,---,0.00,VWS V14.01,2013-04-05 06:38:00,
2013-04-05 02:43:00,39.5,17.2,29.94,NNW,328,0.0,0.0,40,0.00,,---,0.00,VWS V14.01,2013-04-05 06:43:00,
2013-04-05 02:48:00,39.7,17.4,29.94,NW,305,5.6,5.6,40,0.00,,---,0.00,VWS V14.01,2013-04-05 06:48:00,
2013-04-05 02:53:00,39.7,17.4,29.94,NW,305,5.6,5.6,40,0.00,,---,0.00,VWS V14.01,2013-04-05 06:53:00,
2013-04-05 02:59:00,39.7,17.4,29.94,North,350,3.3,3.6,40,0.00,,---,0.00,VWS V14.01,2013-04-05 06:59:00,
2013-04-05 03:04:00,39.5,17.8,29.94,North,350,3.0,3.0,41,0.00,,---,0.00,VWS V14.01,2013-04-05 07:04:00,
2013-04-05 03:09:00,39.5,17.8,29.94,NW,305,2.0,3.0,41,0.00,,---,0.00,VWS V14.01,2013-04-05 07:09:00,
2013-04-05 03:14:00,39.3,17.6,29.94,NW,305,1.7,1.7,41,0.00,,---,0.00,VWS V14.01,2013-04-05 07:14:00,
2013-04-05 03:20:00,38.8,17.1,29.94,NW,305,0.0,0.0,41,0.00,,---,0.00,VWS V14.01,2013-04-05 07:20:00,
2013-04-05 03:25:00,38.2,17.2,29.94,NW,305,0.0,0.0,42,0.00,,---,0.00,VWS V14.01,2013-04-05 07:25:00,
2013-04-05 03:30:00,38.1,16.5,29.94,NW,305,0.0,0.0,41,0.00,,---,0.00,VWS V14.01,2013-04-05 07:30:00,
2013-04-05 03:36:00,37.7,16.7,29.94,North,350,0.0,0.0,42,0.00,,---,0.00,VWS V14.01,2013-04-05 07:36:00,
2013-04-05 03:42:00,37.7,16.7,29.94,North,350,3.0,3.0,42,0.00,,---,0.00,VWS V14.01,2013-04-05 07:42:00,
2013-04-05 03:47:00,37.5,16.5,29.97,North,350,1.3,1.3,42,0.00,,---,0.00,VWS V14.01,2013-04-05 07:47:00,
2013-04-05 03:52:00,37.3,16.4,29.97,North,350,1.3,1.3,42,0.00,,---,0.00,VWS V14.01,2013-04-05 07:52:00,
2013-04-05 03:57:00,37.0,16.0,29.97,North,350,3.0,3.0,42,0.00,,---,0.00,VWS V14.01,2013-04-05 07:57:00,
2013-04-05 04:03:00,37.3,16.9,29.97,North,350,3.0,3.0,43,0.00,,---,0.00,VWS V14.01,2013-04-05 08:03:00,
2013-04-05 04:08:00,38.1,18.1,29.97,North,350,3.0,3.0,44,0.00,,---,0.00,VWS V14.01,2013-04-05 08:08:00,
2013-04-05 04:13:00,38.2,18.3,29.97,North,350,3.6,3.6,44,0.00,,---,0.00,VWS V14.01,2013-04-05 08:13:00,
2013-04-05 04:19:00,38.4,18.4,29.97,NE,35,3.0,3.0,44,0.00,,---,0.00,VWS V14.01,2013-04-05 08:19:00,
2013-04-05 04:24:00,38.4,19.0,29.97,NE,35,3.0,3.0,45,0.00,,---,0.00,VWS V14.01,2013-04-05 08:24:00,
2013-04-05 04:29:00,38.4,19.0,29.97,NE,35,3.0,3.0,45,0.00,,---,0.00,VWS V14.01,2013-04-05 08:29:00,
2013-04-05 04:34:00,38.2,18.8,29.97,North,350,5.0,5.0,45,0.00,,---,0.00,VWS V14.01,2013-04-05 08:34:00,
2013-04-05 04:40:00,38.2,19.3,29.97,North,350,5.3,5.3,46,0.00,,---,0.00,VWS V14.01,2013-04-05 08:40:00,
2013-04-05 04:45:00,38.2,19.3,29.97,North,350,4.6,4.6,46,0.00,,---,0.00,VWS V14.01,2013-04-05 08:45:00,
2013-04-05 04:50:00,38.2,19.3,29.97,North,350,4.6,4.6,46,0.00,,---,0.00,VWS V14.01,2013-04-05 08:50:00,
2013-04-05 04:56:00,37.9,19.5,29.97,North,350,4.6,4.6,47,0.00,,---,0.00,VWS V14.01,2013-04-05 08:56:00,
2013-04-05 05:01:00,37.9,19.0,29.97,North,350,5.6,5.6,46,0.00,,---,0.00,VWS V14.01,2013-04-05 09:01:00,
2013-04-05 05:06:00,37.3,19.0,29.97,NE,35,5.3,5.3,47,0.00,,---,0.00,VWS V14.01,2013-04-05 09:06:00,
2013-04-05 05:11:00,37.3,19.0,29.97,NNE,12,4.3,4.3,47,0.00,,---,0.00,VWS V14.01,2013-04-05 09:11:00,
2013-04-05 05:16:00,37.3,19.0,30.00,NNE,12,3.6,3.6,47,0.00,,---,0.00,VWS V14.01,2013-04-05 09:16:00,
2013-04-05 05:22:00,37.2,18.8,30.00,NNE,12,3.6,3.6,47,0.00,,---,0.00,VWS V14.01,2013-04-05 09:22:00,
2013-04-05 05:27:00,36.8,19.0,30.00,NNE,12,3.6,3.6,48,0.00,,---,0.00,VWS V14.01,2013-04-05 09:27:00,
2013-04-05 05:32:00,36.6,18.8,30.00,NNE,12,3.6,3.6,48,0.00,,---,0.00,VWS V14.01,2013-04-05 09:32:00,
2013-04-05 05:37:00,36.4,19.1,30.00,NNE,12,3.6,3.6,49,0.00,,---,0.00,VWS V14.01,2013-04-05 09:37:00,
2013-04-05 05:43:00,36.4,19.6,30.00,North,350,7.9,7.9,50,0.00,,---,0.00,VWS V14.01,2013-04-05 09:43:00,
2013-04-05 05:48:00,36.3,19.0,30.00,NE,35,6.3,6.3,49,0.00,,---,0.00,VWS V14.01,2013-04-05 09:48:00,
2013-04-05 05:54:00,36.3,19.4,30.00,NE,35,6.3,6.3,50,0.00,,---,0.00,VWS V14.01,2013-04-05 09:54:00,
2013-04-05 05:59:00,35.9,19.1,30.03,NE,35,6.3,6.3,50,0.00,,---,0.00,VWS V14.01,2013-04-05 09:59:00,
2013-04-05 06:04:00,35.7,18.9,30.03,NE,35,6.3,6.3,50,0.00,,---,0.00,VWS V14.01,2013-04-05 10:04:00,
2013-04-05 06:10:00,35.5,18.8,30.03,NE,35,6.3,6.3,50,0.00,,---,0.00,VWS V14.01,2013-04-05 10:10:00,
2013-04-05 06:15:00,35.5,18.8,30.03,NE,35,6.3,6.3,50,0.00,,---,0.00,VWS V14.01,2013-04-05 10:15:00,
2013-04-05 06:20:00,35.4,18.6,30.03,NE,35,6.3,6.3,50,0.00,,---,0.00,VWS V14.01,2013-04-05 10:20:00,
2013-04-05 06:25:00,35.2,18.4,30.03,NE,35,6.3,6.3,50,0.00,,---,0.00,VWS V14.01,2013-04-05 10:25:00,
2013-04-05 06:31:00,35.0,18.2,30.03,NW,305,5.6,6.3,50,0.00,,---,0.00,VWS V14.01,2013-04-05 10:31:00,
2013-04-05 06:37:00,34.8,18.1,30.03,NW,305,5.6,5.6,50,0.00,,---,0.00,VWS V14.01,2013-04-05 10:37:00,
2013-04-05 06:42:00,34.8,18.1,30.03,NW,305,5.6,5.6,50,0.00,,---,0.00,VWS V14.01,2013-04-05 10:42:00,
2013-04-05 06:47:00,34.8,18.5,30.06,NW,305,5.6,5.6,51,0.00,,---,0.00,VWS V14.01,2013-04-05 10:47:00,
2013-04-05 06:53:00,34.6,17.9,30.06,NE,35,8.6,8.6,50,0.00,,---,0.00,VWS V14.01,2013-04-05 10:53:00,
2013-04-05 06:59:00,34.5,17.8,30.06,NE,35,8.6,8.6,50,0.00,,---,0.00,VWS V14.01,2013-04-05 10:59:00,
2013-04-05 07:04:00,34.3,17.6,30.06,NE,35,8.6,8.6,50,0.00,,---,0.00,VWS V14.01,2013-04-05 11:04:00,
2013-04-05 07:09:00,34.3,17.6,30.06,NE,35,8.6,8.6,50,0.00,,---,0.00,VWS V14.01,2013-04-05 11:09:00,
2013-04-05 07:14:00,34.1,17.4,30.06,NE,35,8.6,8.6,50,0.00,,---,0.00,VWS V14.01,2013-04-05 11:14:00,
2013-04-05 07:19:00,33.9,17.3,30.06,NE,35,8.6,8.6,50,0.00,,---,0.00,VWS V14.01,2013-04-05 11:19:00,
2013-04-05 07:24:00,33.9,17.3,30.06,NE,35,8.6,8.6,50,0.00,,---,0.00,VWS V14.01,2013-04-05 11:24:00,
2013-04-05 07:29:00,33.9,17.3,30.09,NE,35,8.6,8.6,50,0.00,,---,0.00,VWS V14.01,2013-04-05 11:29:00,
2013-04-05 07:35:00,33.9,17.3,30.09,NE,35,8.6,8.6,50,0.00,,---,0.00,VWS V14.01,2013-04-05 11:35:00,
2013-04-05 07:40:00,33.9,17.3,30.09,NE,35,8.6,8.6,50,0.00,,---,0.00,VWS V14.01,2013-04-05 11:40:00,
2013-04-05 07:45:00,33.9,17.3,30.09,NE,35,8.6,8.6,50,0.00,,---,0.00,VWS V14.01,2013-04-05 11:45:00,
2013-04-05 07:50:00,33.9,17.3,30.09,NE,35,8.6,8.6,50,0.00,,---,0.00,VWS V14.01,2013-04-05 11:50:00,
2013-04-05 07:56:00,34.1,17.4,30.09,NE,35,8.6,8.6,50,0.00,,---,0.00,VWS V14.01,2013-04-05 11:56:00,
2013-04-05 08:01:00,34.1,17.4,30.09,NE,35,8.6,8.6,50,0.00,,---,0.00,VWS V14.01,2013-04-05 12:01:00,
2013-04-05 08:06:00,34.1,17.4,30.09,NE,35,8.6,8.6,50,0.00,,---,0.00,VWS V14.01,2013-04-05 12:06:00,
2013-04-05 08:12:00,34.3,17.6,30.09,NE,35,8.6,8.6,50,0.00,,---,0.00,VWS V14.01,2013-04-05 12:12:00,
2013-04-05 08:17:00,34.5,17.8,30.09,NE,35,8.6,8.6,50,0.00,,---,0.00,VWS V14.01,2013-04-05 12:17:00,
2013-04-05 08:22:00,34.6,17.5,30.09,NE,35,8.6,8.6,49,0.00,,---,0.00,VWS V14.01,2013-04-05 12:22:00,
2013-04-05 08:28:00,34.8,17.6,30.09,NE,35,8.6,8.6,49,0.00,,---,0.00,VWS V14.01,2013-04-05 12:28:00,
2013-04-05 08:33:00,35.0,17.3,30.09,NE,35,8.6,8.6,48,0.00,,---,0.00,VWS V14.01,2013-04-05 12:33:00,
2013-04-05 08:38:00,35.2,17.5,30.09,NE,35,8.6,8.6,48,0.00,,---,0.00,VWS V14.01,2013-04-05 12:38:00,
2013-04-05 08:43:00,35.4,17.6,30.09,NE,35,8.6,8.6,48,0.00,,---,0.00,VWS V14.01,2013-04-05 12:43:00,
2013-04-05 08:49:00,35.5,17.3,30.09,NE,35,8.6,8.6,47,0.00,,---,0.00,VWS V14.01,2013-04-05 12:49:00,
2013-04-05 08:55:00,35.7,17.5,30.09,NE,35,8.6,8.6,47,0.00,,---,0.00,VWS V14.01,2013-04-05 12:55:00,
2013-04-05 09:00:00,36.1,17.8,30.12,NE,35,8.6,8.6,47,0.00,,---,0.00,VWS V14.01,2013-04-05 13:00:00,
2013-04-05 09:05:00,36.1,17.3,30.12,NE,35,8.6,8.6,46,0.00,,---,0.00,VWS V14.01,2013-04-05 13:05:00,
2013-04-05 09:12:00,36.3,17.5,30.12,NE,35,8.6,8.6,46,0.00,,---,0.00,VWS V14.01,2013-04-05 13:12:00,
2013-04-05 09:17:00,36.6,17.8,30.12,NE,35,8.6,8.6,46,0.00,,---,0.00,VWS V14.01,2013-04-05 13:17:00,
2013-04-05 09:22:00,36.8,18.0,30.12,NE,35,8.6,8.6,46,0.00,,---,0.00,VWS V14.01,2013-04-05 13:22:00,
2013-04-05 09:27:00,37.0,18.1,30.12,NE,35,8.6,8.6,46,0.00,,---,0.00,VWS V14.01,2013-04-05 13:27:00,
2013-04-05 09:32:00,37.0,17.6,30.12,NE,35,8.6,8.6,45,0.00,,---,0.00,VWS V14.01,2013-04-05 13:32:00,
2013-04-05 09:37:00,37.3,18.0,30.12,NE,35,8.6,8.6,45,0.00,,---,0.00,VWS V14.01,2013-04-05 13:37:00,
2013-04-05 09:43:00,37.5,18.1,30.12,NE,35,8.6,8.6,45,0.00,,---,0.00,VWS V14.01,2013-04-05 13:43:00,
2013-04-05 09:48:00,38.1,18.6,30.12,NE,35,8.6,8.6,45,0.00,,---,0.00,VWS V14.01,2013-04-05 13:48:00,
2013-04-05 09:53:00,38.1,18.6,30.12,NE,35,8.6,8.6,45,0.00,,---,0.00,VWS V14.01,2013-04-05 13:53:00,
2013-04-05 09:59:00,38.6,18.6,30.12,NE,35,8.6,8.6,44,0.00,,---,0.00,VWS V14.01,2013-04-05 13:59:00,
2013-04-05 10:04:00,38.6,18.6,30.12,North,350,5.0,8.6,44,0.00,,---,0.00,VWS V14.01,2013-04-05 14:04:00,
2013-04-05 10:09:00,38.8,18.8,30.12,North,350,5.0,5.0,44,0.00,,---,0.00,VWS V14.01,2013-04-05 14:09:00,
2013-04-05 10:14:00,39.5,19.4,30.12,NE,35,5.6,5.6,44,0.00,,---,0.00,VWS V14.01,2013-04-05 14:14:00,
2013-04-05 10:20:00,39.5,18.9,30.12,NE,35,5.6,5.6,43,0.00,,---,0.00,VWS V14.01,2013-04-05 14:20:00,
2013-04-05 10:25:00,40.4,19.7,30.12,NE,35,5.6,5.6,43,0.00,,---,0.00,VWS V14.01,2013-04-05 14:25:00,
2013-04-05 10:36:00,40.6,19.3,30.12,North,350,6.6,6.6,42,0.00,,---,0.00,VWS V14.01,2013-04-05 14:36:00,
2013-04-05 10:42:00,41.1,19.8,30.12,North,350,4.0,4.0,42,0.00,,---,0.00,VWS V14.01,2013-04-05 14:42:00,
2013-04-05 10:47:00,41.3,20.0,30.12,North,350,4.0,4.0,42,0.00,,---,0.00,VWS V14.01,2013-04-05 14:47:00,
2013-04-05 10:53:00,41.8,20.4,30.12,North,350,4.0,4.0,42,0.00,,---,0.00,VWS V14.01,2013-04-05 14:53:00,
2013-04-05 10:58:00,42.2,20.2,30.12,North,350,4.0,4.0,41,0.00,,---,0.00,VWS V14.01,2013-04-05 14:58:00,
2013-04-05 11:04:00,42.2,20.2,30.15,North,350,4.0,4.0,41,0.00,,---,0.00,VWS V14.01,2013-04-05 15:04:00,
2013-04-05 11:10:00,41.8,19.3,30.15,North,350,4.0,4.0,40,0.00,,---,0.00,VWS V14.01,2013-04-05 15:10:00,
2013-04-05 11:15:00,42.2,19.6,30.15,North,350,7.0,7.0,40,0.00,,---,0.00,VWS V14.01,2013-04-05 15:15:00,
2013-04-05 11:20:00,42.6,20.0,30.15,North,350,7.9,7.9,40,0.00,,---,0.00,VWS V14.01,2013-04-05 15:20:00,
2013-04-05 11:26:00,43.1,19.8,30.15,North,350,7.3,7.3,39,0.00,,---,0.00,VWS V14.01,2013-04-05 15:26:00,
2013-04-05 11:31:00,43.6,20.3,30.15,North,350,6.3,7.3,39,0.00,,---,0.00,VWS V14.01,2013-04-05 15:31:00,
2013-04-05 11:36:00,44.4,21.0,30.15,NW,305,4.6,4.6,39,0.00,,---,0.00,VWS V14.01,2013-04-05 15:36:00,
2013-04-05 11:41:00,43.8,20.5,30.15,North,350,5.6,5.6,39,0.00,,---,0.00,VWS V14.01,2013-04-05 15:41:00,
2013-04-05 11:47:00,43.8,20.5,30.15,North,350,5.6,5.6,39,0.00,,---,0.00,VWS V14.01,2013-04-05 15:47:00,
2013-04-05 11:52:00,44.4,20.4,30.15,North,350,8.3,8.3,38,0.00,,---,0.00,VWS V14.01,2013-04-05 15:52:00,
2013-04-05 11:57:00,45.1,21.0,30.15,North,350,6.3,6.3,38,0.00,,---,0.00,VWS V14.01,2013-04-05 15:57:00,
2013-04-05 12:03:00,45.4,21.3,30.15,North,350,6.3,6.3,38,0.00,,---,0.00,VWS V14.01,2013-04-05 16:03:00,
2013-04-05 12:08:00,45.4,21.3,30.15,North,350,6.0,6.3,38,0.00,,---,0.00,VWS V14.01,2013-04-05 16:08:00,
2013-04-05 12:13:00,45.3,21.2,30.15,North,350,6.3,6.3,38,0.00,,---,0.00,VWS V14.01,2013-04-05 16:13:00,
2013-04-05 12:18:00,45.4,20.7,30.15,North,350,6.3,6.3,37,0.00,,---,0.00,VWS V14.01,2013-04-05 16:18:00,
2013-04-05 12:23:00,46.3,21.5,30.15,NW,305,4.0,6.3,37,0.00,,---,0.00,VWS V14.01,2013-04-05 16:23:00,
2013-04-05 12:28:00,46.0,21.2,30.15,North,350,5.0,5.6,37,0.00,,---,0.00,VWS V14.01,2013-04-05 16:28:00,
2013-04-05 12:34:00,46.3,21.5,30.15,North,350,5.0,5.0,37,0.00,,---,0.00,VWS V14.01,2013-04-05 16:34:00,
2013-04-05 12:39:00,46.0,20.5,30.15,NE,35,8.3,8.3,36,0.00,,---,0.00,VWS V14.01,2013-04-05 16:39:00,
2013-04-05 12:44:00,45.8,19.0,30.15,NE,35,8.3,8.3,34,0.00,,---,0.00,VWS V14.01,2013-04-05 16:44:00,
2013-04-05 12:49:00,46.0,19.9,30.15,NE,35,8.3,8.3,35,0.00,,---,0.00,VWS V14.01,2013-04-05 16:49:00,
2013-04-05 12:55:00,47.4,21.8,30.15,East,80,1.7,1.7,36,0.00,,---,0.00,VWS V14.01,2013-04-05 16:55:00,
2013-04-05 13:00:00,47.6,21.3,30.15,NW,305,0.0,0.0,35,0.00,,---,0.00,VWS V14.01,2013-04-05 17:00:00,
2013-04-05 13:05:00,47.4,21.2,30.15,North,350,5.0,5.0,35,0.00,,---,0.00,VWS V14.01,2013-04-05 17:05:00,
2013-04-05 13:11:00,48.0,21.0,30.15,NNE,12,3.6,4.3,34,0.00,,---,0.00,VWS V14.01,2013-04-05 17:11:00,
2013-04-05 13:16:00,48.5,20.7,30.15,NE,35,8.9,8.9,33,0.00,,---,0.00,VWS V14.01,2013-04-05 17:16:00,
2013-04-05 13:21:00,48.0,18.8,30.15,NNW,328,4.3,4.3,31,0.00,,---,0.00,VWS V14.01,2013-04-05 17:21:00,
2013-04-05 13:26:00,49.0,21.2,30.15,NE,35,6.0,7.0,33,0.00,,---,0.00,VWS V14.01,2013-04-05 17:26:00,
2013-04-05 13:32:00,49.6,20.2,30.12,NE,35,6.0,6.0,31,0.00,,---,0.00,VWS V14.01,2013-04-05 17:32:00,
2013-04-05 13:37:00,49.8,21.8,30.12,NE,35,4.6,4.6,33,0.00,,---,0.00,VWS V14.01,2013-04-05 17:37:00,
2013-04-05 13:42:00,49.6,20.2,30.12,NW,305,7.0,7.0,31,0.00,,---,0.00,VWS V14.01,2013-04-05 17:42:00,
2013-04-05 13:48:00,50.8,22.1,30.12,NE,35,3.6,7.0,32,0.00,,---,0.00,VWS V14.01,2013-04-05 17:48:00,
2013-04-05 13:53:00,49.6,19.4,30.12,NE,35,3.6,3.6,30,0.00,,---,0.00,VWS V14.01,2013-04-05 17:53:00,
2013-04-05 13:58:00,49.6,18.6,30.12,North,350,3.6,3.6,29,0.00,,---,0.00,VWS V14.01,2013-04-05 17:58:00,
2013-04-05 14:03:00,50.1,19.1,30.12,NE,35,4.3,4.3,29,0.00,,---,0.00,VWS V14.01,2013-04-05 18:03:00,
2013-04-05 14:09:00,50.8,19.7,30.12,NE,35,4.0,4.0,29,0.00,,---,0.00,VWS V14.01,2013-04-05 18:09:00,
2013-04-05 14:14:00,50.5,20.2,30.12,ESE,102,3.6,4.0,30,0.00,,---,0.00,VWS V14.01,2013-04-05 18:14:00,
2013-04-05 14:19:00,50.3,19.3,30.12,North,350,8.6,8.6,29,0.00,,---,0.00,VWS V14.01,2013-04-05 18:19:00,
2013-04-05 14:25:00,50.3,20.1,30.12,North,350,9.6,9.6,30,0.00,,---,0.00,VWS V14.01,2013-04-05 18:25:00,
2013-04-05 14:30:00,50.5,19.4,30.12,NW,305,6.6,6.6,29,0.00,,---,0.00,VWS V14.01,2013-04-05 18:30:00,
2013-04-05 14:35:00,50.3,18.5,30.12,NE,35,3.6,3.6,28,0.00,,---,0.00,VWS V14.01,2013-04-05 18:35:00,
2013-04-05 14:40:00,50.8,18.9,30.12,NE,35,3.6,3.6,28,0.00,,---,0.00,VWS V14.01,2013-04-05 18:40:00,
2013-04-05 14:46:00,50.1,17.5,30.12,NE,35,3.6,3.6,27,0.00,,---,0.00,VWS V14.01,2013-04-05 18:46:00,
2013-04-05 14:51:00,50.8,18.1,30.12,NE,35,3.6,6.0,27,0.00,,---,0.00,VWS V14.01,2013-04-05 18:51:00,
2013-04-05 14:56:00,50.8,18.1,30.12,NE,35,3.6,3.6,27,0.00,,---,0.00,VWS V14.01,2013-04-05 18:56:00,
2013-04-05 15:01:00,50.5,17.8,30.12,North,350,7.3,7.3,27,0.00,,---,0.00,VWS V14.01,2013-04-05 19:01:00,
2013-04-05 15:07:00,50.5,17.8,30.12,North,350,7.3,7.3,27,0.00,,---,0.00,VWS V14.01,2013-04-05 19:07:00,
2013-04-05 15:12:00,50.8,18.1,30.12,North,350,5.3,7.3,27,0.00,,---,0.00,VWS V14.01,2013-04-05 19:12:00,
2013-04-05 15:17:00,50.3,14.9,30.09,North,350,5.6,5.6,24,0.00,,---,0.00,VWS V14.01,2013-04-05 19:17:00,
2013-04-05 15:22:00,50.3,16.7,30.09,North,350,5.6,5.6,26,0.00,,---,0.00,VWS V14.01,2013-04-05 19:22:00,
2013-04-05 15:28:00,50.5,16.9,30.09,NW,305,5.3,5.3,26,0.00,,---,0.00,VWS V14.01,2013-04-05 19:28:00,
2013-04-05 15:33:00,51.0,18.2,30.09,NW,305,5.3,5.3,27,0.00,,---,0.00,VWS V14.01,2013-04-05 19:33:00,
2013-04-05 15:38:00,50.7,17.0,30.09,NW,305,5.3,5.3,26,0.00,,---,0.00,VWS V14.01,2013-04-05 19:38:00,
2013-04-05 15:44:00,50.5,16.9,30.09,NW,305,5.3,5.3,26,0.00,,---,0.00,VWS V14.01,2013-04-05 19:44:00,
2013-04-05 15:50:00,50.8,17.2,30.09,NW,305,5.3,5.3,26,0.00,,---,0.00,VWS V14.01,2013-04-05 19:50:00,
2013-04-05 15:55:00,50.5,15.1,30.09,NW,305,5.3,5.3,24,0.00,,---,0.00,VWS V14.01,2013-04-05 19:55:00,
2013-04-05 16:00:00,49.9,11.6,30.09,North,350,8.3,8.3,21,0.00,,---,0.00,VWS V14.01,2013-04-05 20:00:00,
2013-04-05 16:05:00,49.9,14.6,30.09,North,350,8.3,8.3,24,0.00,,---,0.00,VWS V14.01,2013-04-05 20:05:00,
2013-04-05 16:10:00,50.1,16.6,30.09,North,350,8.3,8.3,26,0.00,,---,0.00,VWS V14.01,2013-04-05 20:10:00,
2013-04-05 16:15:00,49.8,11.4,30.09,North,350,8.3,8.3,21,0.00,,---,0.00,VWS V14.01,2013-04-05 20:15:00,
2013-04-05 16:21:00,49.8,14.4,30.09,North,350,8.3,8.3,24,0.00,,---,0.00,VWS V14.01,2013-04-05 20:21:00,
2013-04-05 16:27:00,49.6,5.2,30.09,North,350,8.3,8.3,16,0.00,,---,0.00,VWS V14.01,2013-04-05 20:27:00,
2013-04-05 16:32:00,49.6,9.0,30.09,North,350,8.3,8.3,19,0.00,,---,0.00,VWS V14.01,2013-04-05 20:32:00,
2013-04-05 16:37:00,49.0,-3.2,30.09,North,350,8.3,8.3,11,0.00,,---,0.00,VWS V14.01,2013-04-05 20:37:00,
2013-04-05 16:43:00,48.7,1.6,30.09,North,350,8.3,8.3,14,0.00,,---,0.00,VWS V14.01,2013-04-05 20:43:00,
2013-04-05 16:48:00,48.9,10.7,30.09,North,350,8.3,8.3,21,0.00,,---,0.00,VWS V14.01,2013-04-05 20:48:00,
2013-04-05 16:53:00,48.9,10.7,30.09,North,350,4.6,8.3,21,0.00,,---,0.00,VWS V14.01,2013-04-05 20:53:00,
2013-04-05 16:58:00,49.0,10.8,30.09,North,350,4.6,4.6,21,0.00,,---,0.00,VWS V14.01,2013-04-05 20:58:00,
2013-04-05 17:04:00,49.2,11.0,30.09,North,350,4.6,4.6,21,0.00,,---,0.00,VWS V14.01,2013-04-05 21:04:00,
2013-04-05 17:09:00,48.7,4.5,30.09,North,350,4.6,4.6,16,0.00,,---,0.00,VWS V14.01,2013-04-05 21:09:00,
2013-04-05 17:14:00,48.9,10.7,30.09,North,350,4.6,4.6,21,0.00,,---,0.00,VWS V14.01,2013-04-05 21:14:00,
2013-04-05 17:20:00,48.7,13.5,30.09,North,350,4.6,4.6,24,0.00,,---,0.00,VWS V14.01,2013-04-05 21:20:00,
2013-04-05 17:25:00,48.1,4.1,30.09,North,350,4.6,4.6,16,0.00,,---,0.00,VWS V14.01,2013-04-05 21:25:00,
2013-04-05 17:30:00,48.1,10.1,30.09,North,350,4.6,4.6,21,0.00,,---,0.00,VWS V14.01,2013-04-05 21:30:00,
2013-04-05 17:35:00,48.0,7.7,30.09,North,350,4.6,4.6,19,0.00,,---,0.00,VWS V14.01,2013-04-05 21:35:00,
2013-04-05 17:42:00,47.6,15.3,30.09,NE,35,6.0,6.0,27,0.00,,---,0.00,VWS V14.01,2013-04-05 21:42:00,
2013-04-05 17:47:00,47.8,17.1,30.09,NE,35,6.0,6.0,29,0.00,,---,0.00,VWS V14.01,2013-04-05 21:47:00,
2013-04-05 17:52:00,47.6,17.7,30.09,NE,35,6.0,6.0,30,0.00,,---,0.00,VWS V14.01,2013-04-05 21:52:00,
2013-04-05 17:58:00,47.1,17.2,30.09,NE,35,6.0,6.0,30,0.00,,---,0.00,VWS V14.01,2013-04-05 21:58:00,
2013-04-05 18:03:00,46.9,17.1,30.09,NE,35,6.0,6.0,30,0.00,,---,0.00,VWS V14.01,2013-04-05 22:03:00,
2013-04-05 18:08:00,46.7,17.7,30.09,NE,35,6.0,6.0,31,0.00,,---,0.00,VWS V14.01,2013-04-05 22:08:00,
2013-04-05 18:14:00,46.3,17.4,30.09,NE,35,6.0,6.0,31,0.00,,---,0.00,VWS V14.01,2013-04-05 22:14:00,
2013-04-05 18:20:00,46.0,17.1,30.09,NE,35,6.0,6.0,31,0.00,,---,0.00,VWS V14.01,2013-04-05 22:20:00,
2013-04-05 18:25:00,45.8,17.6,30.09,North,350,5.0,6.0,32,0.00,,---,0.00,VWS V14.01,2013-04-05 22:25:00,
2013-04-05 18:30:00,45.6,17.5,30.09,North,350,3.6,3.6,32,0.00,,---,0.00,VWS V14.01,2013-04-05 22:30:00,
2013-04-05 18:35:00,45.3,17.9,30.09,North,350,3.6,3.6,33,0.00,,---,0.00,VWS V14.01,2013-04-05 22:35:00,
2013-04-05 18:42:00,45.1,17.7,30.09,North,350,3.6,3.6,33,0.00,,---,0.00,VWS V14.01,2013-04-05 22:42:00,
2013-04-05 18:47:00,44.9,18.2,30.12,NW,305,3.0,3.6,34,0.00,,---,0.00,VWS V14.01,2013-04-05 22:47:00,
2013-04-05 18:52:00,44.5,17.9,30.12,NW,305,5.0,5.0,34,0.00,,---,0.00,VWS V14.01,2013-04-05 22:52:00,
2013-04-05 18:57:00,44.4,18.4,30.12,NW,305,5.6,5.6,35,0.00,,---,0.00,VWS V14.01,2013-04-05 22:57:00,
2013-04-05 19:03:00,44.2,18.3,30.12,NW,305,4.0,4.0,35,0.00,,---,0.00,VWS V14.01,2013-04-05 23:03:00,
2013-04-05 19:08:00,44.0,18.1,30.12,West,260,6.0,6.0,35,0.00,,---,0.00,VWS V14.01,2013-04-05 23:08:00,
2013-04-05 19:13:00,43.6,18.5,30.12,West,260,6.0,6.0,36,0.00,,---,0.00,VWS V14.01,2013-04-05 23:13:00,
2013-04-05 19:18:00,43.5,18.3,30.12,West,260,6.0,6.0,36,0.00,,---,0.00,VWS V14.01,2013-04-05 23:18:00,
2013-04-05 19:24:00,43.3,18.1,30.12,West,260,6.0,6.0,36,0.00,,---,0.00,VWS V14.01,2013-04-05 23:24:00,
2013-04-05 19:30:00,42.9,17.8,30.12,West,260,6.0,6.0,36,0.00,,---,0.00,VWS V14.01,2013-04-05 23:30:00,
2013-04-05 19:35:00,42.4,18.0,30.12,NW,305,2.3,2.3,37,0.00,,---,0.00,VWS V14.01,2013-04-05 23:35:00,
2013-04-05 19:40:00,42.2,17.8,30.12,NW,305,2.3,2.3,37,0.00,,---,0.00,VWS V14.01,2013-04-05 23:40:00,
2013-04-05 19:45:00,41.8,18.1,30.12,NW,305,2.3,2.3,38,0.00,,---,0.00,VWS V14.01,2013-04-05 23:45:00,
2013-04-05 19:50:00,41.7,17.3,30.12,West,260,1.3,1.3,37,0.00,,---,0.00,VWS V14.01,2013-04-05 23:50:00,
2013-04-05 19:56:00,41.5,17.8,30.12,WNW,282,0.0,3.3,38,0.00,,---,0.00,VWS V14.01,2013-04-05 23:56:00,
2013-04-05 20:02:00,41.1,17.5,30.12,NW,305,4.3,4.3,38,0.00,,---,0.00,VWS V14.01,2013-04-06 00:02:00,
2013-04-05 20:07:00,40.8,17.1,30.12,North,350,1.7,1.7,38,0.00,,---,0.00,VWS V14.01,2013-04-06 00:07:00,
2013-04-05 20:12:00,40.4,16.8,30.12,West,260,3.0,3.0,38,0.00,,---,0.00,VWS V14.01,2013-04-06 00:12:00,
2013-04-05 20:17:00,40.0,17.1,30.12,North,350,2.3,3.0,39,0.00,,---,0.00,VWS V14.01,2013-04-06 00:17:00,
2013-04-05 20:23:00,39.9,16.9,30.12,NNW,328,2.3,2.3,39,0.00,,---,0.00,VWS V14.01,2013-04-06 00:23:00,
2013-04-05 20:28:00,39.7,16.8,30.12,NW,305,4.3,4.3,39,0.00,,---,0.00,VWS V14.01,2013-04-06 00:28:00,
2013-04-05 20:33:00,39.3,16.5,30.15,NW,305,4.6,6.3,39,0.00,,---,0.00,VWS V14.01,2013-04-06 00:33:00,
2013-04-05 20:38:00,39.1,16.3,30.15,NW,305,1.7,1.7,39,0.00,,---,0.00,VWS V14.01,2013-04-06 00:38:00,
2013-04-05 20:44:00,38.8,16.0,30.15,WNW,282,4.0,4.0,39,0.00,,---,0.00,VWS V14.01,2013-04-06 00:44:00,
2013-04-05 20:50:00,38.4,15.6,30.12,West,260,4.3,4.3,39,0.00,,---,0.00,VWS V14.01,2013-04-06 00:50:00,
2013-04-05 20:55:00,38.2,15.5,30.12,NW,305,2.3,2.3,39,0.00,,---,0.00,VWS V14.01,2013-04-06 00:55:00,
2013-04-05 21:00:00,38.1,15.3,30.15,NW,305,4.0,4.0,39,0.00,,---,0.00,VWS V14.01,2013-04-06 01:00:00,
2013-04-05 21:05:00,37.7,15.0,30.15,NW,305,4.0,7.9,39,0.00,,---,0.00,VWS V14.01,2013-04-06 01:05:00,
2013-04-05 21:11:00,37.5,14.8,30.15,WNW,282,4.3,4.3,39,0.00,,---,0.00,VWS V14.01,2013-04-06 01:11:00,
2013-04-05 21:16:00,37.2,15.1,30.15,West,260,2.0,2.0,40,0.00,,---,0.00,VWS V14.01,2013-04-06 01:16:00,
2013-04-05 21:22:00,37.0,14.9,30.15,NW,305,5.0,5.0,40,0.00,,---,0.00,VWS V14.01,2013-04-06 01:22:00,
2013-04-05 21:27:00,36.8,14.8,30.15,West,260,1.3,1.3,40,0.00,,---,0.00,VWS V14.01,2013-04-06 01:27:00,
2013-04-05 21:32:00,36.6,14.6,30.15,WNW,282,1.7,1.7,40,0.00,,---,0.00,VWS V14.01,2013-04-06 01:32:00,
2013-04-05 21:37:00,36.6,14.6,30.15,NW,305,2.0,2.0,40,0.00,,---,0.00,VWS V14.01,2013-04-06 01:37:00,
2013-04-05 21:43:00,36.6,14.6,30.15,NW,305,4.6,4.6,40,0.00,,---,0.00,VWS V14.01,2013-04-06 01:43:00,
2013-04-05 21:48:00,36.4,14.4,30.15,NW,305,4.6,4.6,40,0.00,,---,0.00,VWS V14.01,2013-04-06 01:48:00,
2013-04-05 21:54:00,36.3,14.8,30.15,NNW,328,2.0,2.0,41,0.00,,---,0.00,VWS V14.01,2013-04-06 01:54:00,
2013-04-05 21:59:00,36.1,14.7,30.15,West,260,0.0,4.6,41,0.00,,---,0.00,VWS V14.01,2013-04-06 01:59:00,
2013-04-05 22:05:00,35.9,14.5,30.15,West,260,0.0,0.0,41,0.00,,---,0.00,VWS V14.01,2013-04-06 02:05:00,
2013-04-05 22:10:00,35.7,14.4,30.15,West,260,0.0,0.0,41,0.00,,---,0.00,VWS V14.01,2013-04-06 02:10:00,
2013-04-05 22:15:00,35.7,14.4,30.15,NW,305,0.0,2.3,41,0.00,,---,0.00,VWS V14.01,2013-04-06 02:15:00,
2013-04-05 22:20:00,35.2,13.9,30.15,NE,35,0.0,0.0,41,0.00,,---,0.00,VWS V14.01,2013-04-06 02:20:00,
2013-04-05 22:25:00,35.0,13.7,30.15,North,350,0.0,0.0,41,0.00,,---,0.00,VWS V14.01,2013-04-06 02:25:00,
2013-04-05 22:31:00,35.2,13.9,30.18,North,350,1.3,1.3,41,0.00,,---,0.00,VWS V14.01,2013-04-06 02:31:00,
2013-04-05 22:37:00,35.0,14.2,30.18,NNE,12,0.0,1.3,42,0.00,,---,0.00,VWS V14.01,2013-04-06 02:37:00,
2013-04-05 22:42:00,34.8,14.1,30.18,North,350,0.0,0.0,42,0.00,,---,0.00,VWS V14.01,2013-04-06 02:42:00,
2013-04-05 22:47:00,34.6,13.9,30.15,NW,305,0.0,0.0,42,0.00,,---,0.00,VWS V14.01,2013-04-06 02:47:00,
2013-04-05 22:53:00,34.5,13.8,30.15,West,260,0.0,0.0,42,0.00,,---,0.00,VWS V14.01,2013-04-06 02:53:00,
2013-04-05 22:58:00,34.1,13.4,30.15,NW,305,0.0,0.0,42,0.00,,---,0.00,VWS V14.01,2013-04-06 02:58:00,
2013-04-05 23:03:00,34.1,13.4,30.15,NW,305,0.0,0.0,42,0.00,,---,0.00,VWS V14.01,2013-04-06 03:03:00,
2013-04-05 23:09:00,33.9,13.3,30.15,NW,305,0.0,0.0,42,0.00,,---,0.00,VWS V14.01,2013-04-06 03:09:00,
2013-04-05 23:14:00,33.9,13.3,30.15,NW,305,0.0,0.0,42,0.00,,---,0.00,VWS V14.01,2013-04-06 03:14:00,
2013-04-05 23:19:00,33.7,13.1,30.15,NW,305,0.0,0.0,42,0.00,,---,0.00,VWS V14.01,2013-04-06 03:19:00,
2013-04-05 23:24:00,33.2,12.6,30.15,ENE,58,0.0,0.0,42,0.00,,---,0.00,VWS V14.01,2013-04-06 03:24:00,
2013-04-05 23:30:00,33.2,13.1,30.15,East,80,0.0,0.0,43,0.00,,---,0.00,VWS V14.01,2013-04-06 03:30:00,
2013-04-05 23:35:00,33.0,13.0,30.15,East,80,0.0,0.0,43,0.00,,---,0.00,VWS V14.01,2013-04-06 03:35:00,
2013-04-05 23:40:00,33.0,13.0,30.15,North,350,0.0,0.0,43,0.00,,---,0.00,VWS V14.01,2013-04-06 03:40:00,
2013-04-05 23:45:00,32.8,12.8,30.15,North,350,0.0,0.0,43,0.00,,---,0.00,VWS V14.01,2013-04-06 03:45:00,
2013-04-05 23:51:00,33.0,13.0,30.15,North,350,0.0,0.0,43,0.00,,---,0.00,VWS V14.01,2013-04-06 03:51:00,
2013-04-05 23:56:00,33.0,13.0,30.15,North,350,0.0,0.0,43,0.00,,---,0.00,VWS V14.01,2013-04-06 03:56:00,